createdAt,value
2023-03-12T00:00:12.077Z,99035.75
2023-03-12T00:01:21.090Z,99035.87
2023-03-12T00:02:11.146Z,99037.02
2023-03-12T00:03:11.085Z,99038.91
2023-03-12T00:04:11.125Z,99039.45
2023-03-12T00:05:11.078Z,99041.06
2023-03-12T00:06:11.294Z,99039.30
2023-03-12T00:07:11.074Z,99043.30
2023-03-12T00:08:11.085Z,99040.99
2023-03-12T00:09:11.070Z,99043.05
2023-03-12T00:10:11.074Z,99038.77
2023-03-12T00:11:11.090Z,99038.68
2023-03-12T00:12:11.071Z,99039.05
2023-03-12T00:13:11.073Z,99043.23
2023-03-12T00:14:11.086Z,99040.76
2023-03-12T00:15:11.073Z,99041.82
2023-03-12T00:16:11.197Z,99042.93
2023-03-12T00:17:11.081Z,99038.87
2023-03-12T00:18:11.074Z,99038.23
2023-03-12T00:19:12.074Z,99039.36
2023-03-12T00:20:11.075Z,99037.28
2023-03-12T00:21:11.121Z,99042.81
2023-03-12T00:22:11.076Z,99037.88
2023-03-12T00:23:11.076Z,99043.52
2023-03-12T00:24:11.072Z,99043.21
2023-03-12T00:25:13.075Z,99046.52
2023-03-12T00:26:11.073Z,99042.63
2023-03-12T00:27:11.074Z,99039.82
2023-03-12T00:28:11.073Z,99042.80
2023-03-12T00:29:11.083Z,99043.12
2023-03-12T00:30:11.079Z,99044.75
2023-03-12T00:31:19.125Z,99043.87
2023-03-12T00:32:11.069Z,99041.50
2023-03-12T00:33:11.074Z,99038.30
2023-03-12T00:34:11.074Z,99041.29
2023-03-12T00:35:11.067Z,99047.40
2023-03-12T00:36:11.093Z,99049.46
2023-03-12T00:37:12.081Z,99048.23
2023-03-12T00:38:11.067Z,99049.14
2023-03-12T00:39:11.072Z,99042.70
2023-03-12T00:40:11.082Z,99051.11
2023-03-12T00:41:11.070Z,99050.12
2023-03-12T00:42:11.074Z,99045.96
2023-03-12T00:43:11.073Z,99047.59
2023-03-12T00:44:11.072Z,99040.10
2023-03-12T00:45:11.069Z,99042.91
2023-03-12T00:46:11.101Z,99043.61
2023-03-12T00:47:11.070Z,99048.78
2023-03-12T00:48:11.068Z,99046.02
2023-03-12T00:49:11.072Z,99049.61
2023-03-12T00:50:11.084Z,99045.94
2023-03-12T00:51:11.077Z,99050.16
2023-03-12T00:52:11.077Z,99051.63
2023-03-12T00:53:11.075Z,99053.85
2023-03-12T00:54:11.074Z,99057.75
2023-03-12T00:55:11.078Z,99054.39
2023-03-12T00:56:11.067Z,99059.32
2023-03-12T00:57:11.075Z,99064.63
2023-03-12T00:58:11.078Z,99061.32
2023-03-12T00:59:11.067Z,99059.82
2023-03-12T01:00:14.075Z,99059.13
2023-03-12T01:01:11.128Z,99052.61
2023-03-12T01:02:11.063Z,99055.48
2023-03-12T01:03:11.065Z,99056.36
2023-03-12T01:04:11.121Z,99057.45
2023-03-12T01:05:11.073Z,99059.56
2023-03-12T01:06:11.085Z,99057.62
2023-03-12T01:07:11.066Z,99056.09
2023-03-12T01:08:11.073Z,99052.09
2023-03-12T01:09:11.067Z,99059.46
2023-03-12T01:10:11.065Z,99056.87
2023-03-12T01:11:14.076Z,99051.34
2023-03-12T01:12:11.069Z,99052.43
2023-03-12T01:13:11.070Z,99054.61
2023-03-12T01:14:11.077Z,99049.35
2023-03-12T01:15:12.067Z,99050.49
2023-03-12T01:16:11.122Z,99053.19
2023-03-12T01:17:11.074Z,99049.35
2023-03-12T01:18:11.079Z,99051.21
2023-03-12T01:19:11.070Z,99043.60
2023-03-12T01:20:11.078Z,99045.82
2023-03-12T01:21:11.072Z,99049.57
2023-03-12T01:22:11.066Z,99046.28
2023-03-12T01:23:11.075Z,99047.46
2023-03-12T01:24:11.072Z,99044.97
2023-03-12T01:25:11.072Z,99041.19
2023-03-12T01:26:11.075Z,99043.36
2023-03-12T01:27:11.072Z,99044.92
2023-03-12T01:28:11.076Z,99047.96
2023-03-12T01:29:11.080Z,99048.39
2023-03-12T01:30:11.070Z,99045.35
2023-03-12T01:31:11.169Z,99046.43
2023-03-12T01:32:11.077Z,99047.00
2023-03-12T01:33:11.070Z,99051.85
2023-03-12T01:34:11.082Z,99052.91
2023-03-12T01:35:11.105Z,99054.31
2023-03-12T01:36:15.118Z,99060.44
2023-03-12T01:37:11.068Z,99057.83
2023-03-12T01:38:12.074Z,99056.94
2023-03-12T01:39:11.101Z,99060.47
2023-03-12T01:40:16.072Z,99055.41
2023-03-12T01:41:11.076Z,99059.26
2023-03-12T01:42:11.075Z,99059.27
2023-03-12T01:43:19.070Z,99056.73
2023-03-12T01:44:14.073Z,99052.93
2023-03-12T01:45:19.068Z,99045.61
2023-03-12T01:46:19.067Z,99044.26
2023-03-12T01:47:11.072Z,99042.18
2023-03-12T01:48:11.070Z,99043.38
2023-03-12T01:49:19.084Z,99049.28
2023-03-12T01:50:11.074Z,99051.94
2023-03-12T01:51:13.069Z,99047.82
2023-03-12T01:52:15.077Z,99051.81
2023-03-12T01:53:11.073Z,99054.47
2023-03-12T01:54:19.066Z,99059.68
2023-03-12T01:55:12.073Z,99061.69
2023-03-12T01:56:11.064Z,99060.06
2023-03-12T01:57:19.076Z,99063.74
2023-03-12T01:58:11.064Z,99066.94
2023-03-12T01:59:19.069Z,99068.30
2023-03-12T02:00:15.077Z,99068.68
2023-03-12T02:01:11.105Z,99074.13
2023-03-12T02:02:11.063Z,99075.43
2023-03-12T02:03:11.067Z,99072.39
2023-03-12T02:04:11.110Z,99072.11
2023-03-12T02:05:19.064Z,99068.75
2023-03-12T02:06:13.066Z,99071.14
2023-03-12T02:07:15.095Z,99069.40
2023-03-12T02:08:11.069Z,99068.49
2023-03-12T02:09:11.061Z,99068.74
2023-03-12T02:10:11.064Z,99070.21
2023-03-12T02:11:11.078Z,99072.16
2023-03-12T02:12:11.074Z,99072.09
2023-03-12T02:13:11.070Z,99068.45
2023-03-12T02:14:11.076Z,99067.91
2023-03-12T02:15:11.066Z,99070.65
2023-03-12T02:16:11.081Z,99066.93
2023-03-12T02:17:11.078Z,99071.22
2023-03-12T02:18:15.075Z,99072.57
2023-03-12T02:19:17.070Z,99072.45
2023-03-12T02:20:23.076Z,99072.44
2023-03-12T02:21:20.067Z,99070.38
2023-03-12T02:22:11.067Z,99067.03
2023-03-12T02:23:16.063Z,99071.39
2023-03-12T02:24:19.071Z,99072.82
2023-03-12T02:25:19.081Z,99069.29
2023-03-12T02:26:11.095Z,99067.88
2023-03-12T02:27:11.068Z,99068.58
2023-03-12T02:28:13.078Z,99066.90
2023-03-12T02:29:11.074Z,99065.17
2023-03-12T02:30:12.067Z,99065.31
2023-03-12T02:31:12.066Z,99070.08
2023-03-12T02:32:15.105Z,99065.36
2023-03-12T02:33:11.071Z,99064.30
2023-03-12T02:34:11.069Z,99067.17
2023-03-12T02:35:11.089Z,99066.93
2023-03-12T02:36:11.139Z,99064.45
2023-03-12T02:37:11.070Z,99063.91
2023-03-12T02:38:19.070Z,99059.95
2023-03-12T02:39:12.069Z,99058.21
2023-03-12T02:40:21.080Z,99061.26
2023-03-12T02:41:19.089Z,99063.42
2023-03-12T02:42:11.077Z,99061.19
2023-03-12T02:43:11.073Z,99066.72
2023-03-12T02:44:21.088Z,99063.36
2023-03-12T02:45:11.074Z,99066.61
2023-03-12T02:46:11.157Z,99070.99
2023-03-12T02:47:11.067Z,99066.82
2023-03-12T02:48:11.071Z,99066.41
2023-03-12T02:49:11.077Z,99063.09
2023-03-12T02:50:11.077Z,99065.77
2023-03-12T02:51:11.068Z,99070.83
2023-03-12T02:52:11.079Z,99063.36
2023-03-12T02:53:11.071Z,99060.38
2023-03-12T02:54:11.073Z,99064.71
2023-03-12T02:55:11.073Z,99065.92
2023-03-12T02:56:11.076Z,99058.77
2023-03-12T02:57:11.069Z,99062.20
2023-03-12T02:58:11.073Z,99061.00
2023-03-12T02:59:11.072Z,99067.10
2023-03-12T03:00:11.069Z,99062.66
2023-03-12T03:01:11.133Z,99066.91
2023-03-12T03:02:11.072Z,99063.50
2023-03-12T03:03:11.067Z,99068.29
2023-03-12T03:04:11.113Z,99063.85
2023-03-12T03:05:11.080Z,99060.49
2023-03-12T03:06:11.080Z,99066.75
2023-03-12T03:07:11.090Z,99062.09
2023-03-12T03:08:11.073Z,99069.30
2023-03-12T03:09:11.070Z,99071.75
2023-03-12T03:10:11.087Z,99071.10
2023-03-12T03:11:11.074Z,99074.64
2023-03-12T03:12:11.069Z,99080.56
2023-03-12T03:13:11.072Z,99078.94
2023-03-12T03:14:11.076Z,99078.57
2023-03-12T03:15:11.578Z,99081.29
2023-03-12T03:16:11.081Z,99080.69
2023-03-12T03:17:11.082Z,99084.66
2023-03-12T03:18:11.072Z,99084.29
2023-03-12T03:19:11.074Z,99086.40
2023-03-12T03:20:13.086Z,99089.39
2023-03-12T03:21:11.075Z,99093.40
2023-03-12T03:22:11.072Z,99103.28
2023-03-12T03:23:11.081Z,99097.97
2023-03-12T03:24:11.077Z,99097.65
2023-03-12T03:25:11.085Z,99099.76
2023-03-12T03:26:11.076Z,99101.45
2023-03-12T03:27:11.079Z,99108.61
2023-03-12T03:28:11.076Z,99105.47
2023-03-12T03:30:13.107Z,99108.74
2023-03-12T03:31:11.138Z,99115.45
2023-03-12T03:32:11.077Z,99115.04
2023-03-12T03:33:11.081Z,99113.57
2023-03-12T03:34:11.073Z,99115.42
2023-03-12T03:35:11.076Z,99114.29
2023-03-12T03:36:11.079Z,99110.15
2023-03-12T03:37:11.074Z,99115.05
2023-03-12T03:38:11.076Z,99116.99
2023-03-12T03:39:11.081Z,99124.93
2023-03-12T03:40:11.076Z,99126.33
2023-03-12T03:41:11.074Z,99125.96
2023-03-12T03:42:11.086Z,99129.70
2023-03-12T03:43:11.080Z,99126.89
2023-03-12T03:44:11.075Z,99123.25
2023-03-12T03:45:11.084Z,99125.25
2023-03-12T03:46:11.115Z,99120.81
2023-03-12T03:47:11.077Z,99118.68
2023-03-12T03:48:11.085Z,99119.39
2023-03-12T03:49:11.078Z,99113.62
2023-03-12T03:50:11.079Z,99117.18
2023-03-12T03:51:11.110Z,99117.49
2023-03-12T03:52:11.076Z,99116.95
2023-03-12T03:53:11.078Z,99118.25
2023-03-12T03:54:11.083Z,99122.81
2023-03-12T03:55:11.074Z,99125.14
2023-03-12T03:56:11.072Z,99129.51
2023-03-12T03:57:11.085Z,99125.48
2023-03-12T03:58:11.076Z,99127.82
2023-03-12T03:59:11.072Z,99127.71
2023-03-12T04:00:13.117Z,99122.81
2023-03-12T04:01:12.061Z,99124.77
2023-03-12T04:02:11.060Z,99126.94
2023-03-12T04:03:11.075Z,99120.64
2023-03-12T04:04:11.060Z,99124.98
2023-03-12T04:05:11.185Z,99123.47
2023-03-12T04:06:11.069Z,99115.70
2023-03-12T04:07:11.064Z,99116.85
2023-03-12T04:08:11.073Z,99115.33
2023-03-12T04:09:11.068Z,99117.71
2023-03-12T04:10:11.062Z,99116.31
2023-03-12T04:11:14.064Z,99118.31
2023-03-12T04:12:11.061Z,99123.36
2023-03-12T04:13:11.062Z,99127.61
2023-03-12T04:14:11.060Z,99127.28
2023-03-12T04:15:11.068Z,99125.25
2023-03-12T04:16:11.140Z,99122.60
2023-03-12T04:17:11.061Z,99115.82
2023-03-12T04:18:11.086Z,99112.93
2023-03-12T04:19:11.060Z,99115.37
2023-03-12T04:20:12.059Z,99114.55
2023-03-12T04:21:11.060Z,99118.14
2023-03-12T04:22:11.068Z,99121.20
2023-03-12T04:23:11.058Z,99121.85
2023-03-12T04:24:14.070Z,99124.44
2023-03-12T04:25:11.067Z,99123.32
2023-03-12T04:26:11.059Z,99129.24
2023-03-12T04:27:11.060Z,99137.17
2023-03-12T04:28:11.061Z,99137.82
2023-03-12T04:29:11.071Z,99137.55
2023-03-12T04:30:11.073Z,99142.64
2023-03-12T04:31:11.131Z,99142.38
2023-03-12T04:32:11.061Z,99139.44
2023-03-12T04:33:11.059Z,99142.64
2023-03-12T04:34:12.614Z,99143.73
2023-03-12T04:35:11.062Z,99145.68
2023-03-12T04:36:11.121Z,99144.98
2023-03-12T04:37:11.068Z,99148.99
2023-03-12T04:38:11.072Z,99153.11
2023-03-12T04:39:13.061Z,99156.81
2023-03-12T04:40:11.078Z,99159.26
2023-03-12T04:41:13.083Z,99162.88
2023-03-12T04:42:11.079Z,99166.25
2023-03-12T04:43:11.063Z,99168.70
2023-03-12T04:44:12.830Z,99164.03
2023-03-12T04:45:11.066Z,99165.32
2023-03-12T04:46:11.153Z,99160.92
2023-03-12T04:47:11.073Z,99159.28
2023-03-12T04:48:11.083Z,99161.25
2023-03-12T04:49:11.066Z,99164.05
2023-03-12T04:50:11.066Z,99163.96
2023-03-12T04:51:11.080Z,99162.16
2023-03-12T04:52:11.064Z,99164.49
2023-03-12T04:53:11.075Z,99166.60
2023-03-12T04:54:11.078Z,99166.60
2023-03-12T04:55:11.066Z,99168.16
2023-03-12T04:56:11.071Z,99174.30
2023-03-12T04:57:11.076Z,99175.29
2023-03-12T04:58:11.077Z,99171.97
2023-03-12T04:59:11.069Z,99176.26
2023-03-12T05:00:14.088Z,99175.45
2023-03-12T05:01:18.071Z,99177.89
2023-03-12T05:02:11.070Z,99179.19
2023-03-12T05:03:11.076Z,99182.62
2023-03-12T05:04:11.154Z,99183.76
2023-03-12T05:05:12.089Z,99181.27
2023-03-12T05:06:11.071Z,99185.02
2023-03-12T05:07:11.071Z,99182.67
2023-03-12T05:08:11.070Z,99182.08
2023-03-12T05:09:11.071Z,99178.05
2023-03-12T05:10:11.072Z,99179.04
2023-03-12T05:11:11.080Z,99178.49
2023-03-12T05:12:11.083Z,99179.16
2023-03-12T05:13:15.079Z,99182.40
2023-03-12T05:14:12.074Z,99180.73
2023-03-12T05:15:11.070Z,99177.80
2023-03-12T05:16:11.103Z,99178.89
2023-03-12T05:17:11.077Z,99175.62
2023-03-12T05:18:11.074Z,99176.75
2023-03-12T05:19:11.080Z,99175.30
2023-03-12T05:20:11.068Z,99171.61
2023-03-12T05:21:19.074Z,99169.88
2023-03-12T05:22:11.091Z,99167.53
2023-03-12T05:23:11.075Z,99174.00
2023-03-12T05:24:11.078Z,99171.34
2023-03-12T05:25:11.078Z,99165.53
2023-03-12T05:26:17.069Z,99166.85
2023-03-12T05:27:12.219Z,99169.89
2023-03-12T05:28:11.075Z,99169.39
2023-03-12T05:29:11.072Z,99169.23
2023-03-12T05:30:11.078Z,99171.19
2023-03-12T05:31:11.116Z,99171.62
2023-03-12T05:32:11.071Z,99167.54
2023-03-12T05:33:11.070Z,99169.98
2023-03-12T05:34:11.072Z,99167.45
2023-03-12T05:35:11.078Z,99165.87
2023-03-12T05:36:11.153Z,99168.43
2023-03-12T05:37:11.074Z,99173.76
2023-03-12T05:38:11.079Z,99171.42
2023-03-12T05:39:11.069Z,99173.80
2023-03-12T05:40:12.076Z,99170.76
2023-03-12T05:41:15.082Z,99166.64
2023-03-12T05:42:11.074Z,99165.67
2023-03-12T05:43:11.091Z,99166.63
2023-03-12T05:44:12.080Z,99171.14
2023-03-12T05:45:11.076Z,99173.87
2023-03-12T05:46:11.143Z,99172.51
2023-03-12T05:47:11.074Z,99172.29
2023-03-12T05:48:11.075Z,99172.20
2023-03-12T05:49:11.072Z,99175.24
2023-03-12T05:50:11.074Z,99173.61
2023-03-12T05:51:11.076Z,99174.75
2023-03-12T05:52:11.071Z,99171.42
2023-03-12T05:53:11.079Z,99175.12
2023-03-12T05:54:11.082Z,99172.73
2023-03-12T05:55:11.073Z,99170.83
2023-03-12T05:56:13.078Z,99168.59
2023-03-12T05:57:11.094Z,99169.36
2023-03-12T05:58:11.087Z,99170.77
2023-03-12T05:59:11.088Z,99171.91
2023-03-12T06:00:12.081Z,99170.17
2023-03-12T06:01:14.072Z,99167.89
2023-03-12T06:02:11.130Z,99172.89
2023-03-12T06:03:11.123Z,99168.86
2023-03-12T06:04:11.070Z,99170.76
2023-03-12T06:05:11.089Z,99170.11
2023-03-12T06:06:11.068Z,99171.03
2023-03-12T06:07:11.069Z,99169.40
2023-03-12T06:08:12.084Z,99168.59
2023-03-12T06:09:11.073Z,99169.13
2023-03-12T06:10:11.071Z,99167.60
2023-03-12T06:11:11.065Z,99172.43
2023-03-12T06:12:11.069Z,99176.68
2023-03-12T06:13:11.075Z,99185.29
2023-03-12T06:14:11.070Z,99188.34
2023-03-12T06:15:11.071Z,99191.38
2023-03-12T06:16:16.164Z,99189.93
2023-03-12T06:17:11.069Z,99192.57
2023-03-12T06:18:11.070Z,99186.07
2023-03-12T06:19:11.068Z,99190.35
2023-03-12T06:20:11.077Z,99190.24
2023-03-12T06:21:14.068Z,99195.34
2023-03-12T06:22:11.069Z,99196.26
2023-03-12T06:23:11.078Z,99203.50
2023-03-12T06:24:11.067Z,99200.68
2023-03-12T06:25:11.070Z,99200.32
2023-03-12T06:26:11.071Z,99196.11
2023-03-12T06:27:11.067Z,99199.97
2023-03-12T06:28:11.070Z,99202.07
2023-03-12T06:29:11.077Z,99202.09
2023-03-12T06:30:11.068Z,99201.98
2023-03-12T06:31:11.151Z,99206.05
2023-03-12T06:32:11.075Z,99200.88
2023-03-12T06:33:12.066Z,99202.29
2023-03-12T06:34:11.076Z,99200.82
2023-03-12T06:35:11.078Z,99207.73
2023-03-12T06:36:11.071Z,99212.29
2023-03-12T06:37:11.073Z,99205.65
2023-03-12T06:38:11.076Z,99209.51
2023-03-12T06:39:11.068Z,99214.08
2023-03-12T06:40:13.135Z,99214.38
2023-03-12T06:41:11.073Z,99218.03
2023-03-12T06:42:11.070Z,99218.41
2023-03-12T06:43:15.073Z,99223.96
2023-03-12T06:44:11.112Z,99223.86
2023-03-12T06:45:11.080Z,99229.98
2023-03-12T06:46:12.107Z,99229.66
2023-03-12T06:47:11.084Z,99232.71
2023-03-12T06:48:11.078Z,99236.19
2023-03-12T06:49:11.071Z,99234.56
2023-03-12T06:50:11.085Z,99230.15
2023-03-12T06:51:11.081Z,99222.84
2023-03-12T06:52:11.074Z,99209.91
2023-03-12T06:53:11.072Z,99212.45
2023-03-12T06:54:11.079Z,99209.31
2023-03-12T06:55:11.073Z,99208.48
2023-03-12T06:56:11.083Z,99209.99
2023-03-12T06:57:11.075Z,99206.08
2023-03-12T06:58:11.073Z,99207.38
2023-03-12T06:59:11.079Z,99204.14
2023-03-12T07:00:11.071Z,99207.67
2023-03-12T07:01:11.056Z,99211.96
2023-03-12T07:02:12.121Z,99213.75
2023-03-12T07:03:11.058Z,99216.30
2023-03-12T07:04:11.060Z,99213.36
2023-03-12T07:05:11.148Z,99217.18
2023-03-12T07:06:15.071Z,99215.54
2023-03-12T07:07:12.087Z,99220.47
2023-03-12T07:08:11.060Z,99223.46
2023-03-12T07:09:11.070Z,99220.65
2023-03-12T07:10:12.071Z,99216.08
2023-03-12T07:11:11.064Z,99210.43
2023-03-12T07:12:11.061Z,99210.49
2023-03-12T07:13:11.063Z,99209.19
2023-03-12T07:14:11.064Z,99212.78
2023-03-12T07:15:11.064Z,99222.86
2023-03-12T07:16:11.077Z,99229.64
2023-03-12T07:17:11.070Z,99232.29
2023-03-12T07:18:11.062Z,99231.09
2023-03-12T07:19:11.063Z,99231.23
2023-03-12T07:20:11.074Z,99241.34
2023-03-12T07:21:11.064Z,99237.26
2023-03-12T07:22:11.170Z,99238.62
2023-03-12T07:23:11.070Z,99246.81
2023-03-12T07:24:11.078Z,99242.10
2023-03-12T07:25:11.095Z,99241.22
2023-03-12T07:26:11.075Z,99240.03
2023-03-12T07:27:11.126Z,99229.93
2023-03-12T07:28:11.069Z,99228.14
2023-03-12T07:29:11.076Z,99226.24
2023-03-12T07:30:11.076Z,99226.91
2023-03-12T07:31:11.094Z,99221.89
2023-03-12T07:32:11.076Z,99219.07
2023-03-12T07:33:13.226Z,99215.34
2023-03-12T07:34:11.230Z,99213.00
2023-03-12T07:35:11.072Z,99216.37
2023-03-12T07:36:11.163Z,99210.73
2023-03-12T07:37:11.106Z,99216.46
2023-03-12T07:38:11.097Z,99218.14
2023-03-12T07:39:11.072Z,99221.40
2023-03-12T07:40:11.065Z,99230.10
2023-03-12T07:41:11.217Z,99233.74
2023-03-12T07:42:11.077Z,99240.26
2023-03-12T07:43:15.063Z,99245.77
2023-03-12T07:44:11.151Z,99241.00
2023-03-12T07:45:11.095Z,99243.71
2023-03-12T07:46:11.105Z,99242.90
2023-03-12T07:47:23.062Z,99242.23
2023-03-12T07:48:13.142Z,99241.47
2023-03-12T07:49:11.070Z,99241.32
2023-03-12T07:50:11.141Z,99232.73
2023-03-12T07:51:11.081Z,99232.04
2023-03-12T07:52:13.113Z,99232.32
2023-03-12T07:53:11.061Z,99226.99
2023-03-12T07:54:11.064Z,99224.16
2023-03-12T07:55:11.193Z,99221.56
2023-03-12T07:56:11.176Z,99223.69
2023-03-12T07:57:11.337Z,99222.11
2023-03-12T07:58:11.178Z,99229.22
2023-03-12T07:59:11.204Z,99226.02
2023-03-12T08:00:11.257Z,99230.31
2023-03-12T08:01:11.106Z,99229.50
2023-03-12T08:02:11.223Z,99220.15
2023-03-12T08:03:11.520Z,99223.89
2023-03-12T08:04:11.177Z,99223.61
2023-03-12T08:05:11.132Z,99220.17
2023-03-12T08:06:11.112Z,99220.45
2023-03-12T08:07:11.117Z,99213.84
2023-03-12T08:08:11.177Z,99209.95
2023-03-12T08:09:11.088Z,99210.59
2023-03-12T08:10:11.074Z,99209.93
2023-03-12T08:11:11.065Z,99216.43
2023-03-12T08:12:11.169Z,99222.21
2023-03-12T08:13:11.103Z,99221.28
2023-03-12T08:14:11.102Z,99225.62
2023-03-12T08:15:11.062Z,99217.28
2023-03-12T08:16:11.128Z,99212.63
2023-03-12T08:17:11.066Z,99212.71
2023-03-12T08:18:11.061Z,99207.31
2023-03-12T08:19:11.068Z,99206.59
2023-03-12T08:20:13.069Z,99208.77
2023-03-12T08:21:11.065Z,99208.82
2023-03-12T08:22:11.063Z,99212.78
2023-03-12T08:23:11.074Z,99207.81
2023-03-12T08:24:11.066Z,99209.33
2023-03-12T08:25:11.073Z,99205.92
2023-03-12T08:26:11.073Z,99205.09
2023-03-12T08:27:11.068Z,99205.34
2023-03-12T08:28:11.062Z,99203.98
2023-03-12T08:29:11.066Z,99198.82
2023-03-12T08:30:11.068Z,99202.80
2023-03-12T08:31:11.062Z,99208.01
2023-03-12T08:32:11.165Z,99211.35
2023-03-12T08:33:11.109Z,99211.45
2023-03-12T08:34:11.064Z,99214.21
2023-03-12T08:35:11.074Z,99211.03
2023-03-12T08:36:11.075Z,99213.75
2023-03-12T08:37:11.064Z,99209.88
2023-03-12T08:38:11.075Z,99215.33
2023-03-12T08:39:11.073Z,99212.75
2023-03-12T08:40:15.153Z,99210.54
2023-03-12T08:41:11.065Z,99210.75
2023-03-12T08:42:11.068Z,99214.64
2023-03-12T08:43:11.068Z,99208.56
2023-03-12T08:44:11.082Z,99207.02
2023-03-12T08:45:11.079Z,99203.73
2023-03-12T08:46:12.308Z,99208.25
2023-03-12T08:47:11.074Z,99213.13
2023-03-12T08:48:11.072Z,99214.22
2023-03-12T08:49:11.070Z,99213.15
2023-03-12T08:50:11.067Z,99216.21
2023-03-12T08:51:11.086Z,99219.46
2023-03-12T08:52:11.073Z,99223.04
2023-03-12T08:53:11.083Z,99219.91
2023-03-12T08:54:11.094Z,99216.78
2023-03-12T08:55:11.080Z,99222.89
2023-03-12T08:56:11.070Z,99216.89
2023-03-12T08:57:11.068Z,99220.52
2023-03-12T08:58:11.073Z,99220.82
2023-03-12T08:59:11.082Z,99221.21
2023-03-12T09:00:12.072Z,99224.40
2023-03-12T09:01:11.073Z,99222.78
2023-03-12T09:02:12.077Z,99229.29
2023-03-12T09:03:11.161Z,99229.24
2023-03-12T09:04:11.204Z,99226.38
2023-03-12T09:05:11.071Z,99224.29
2023-03-12T09:06:14.072Z,99223.20
2023-03-12T09:07:11.076Z,99220.66
2023-03-12T09:08:11.073Z,99214.64
2023-03-12T09:09:11.074Z,99205.89
2023-03-12T09:10:11.094Z,99203.56
2023-03-12T09:11:11.096Z,99202.65
2023-03-12T09:12:11.076Z,99213.22
2023-03-12T09:13:11.082Z,99206.28
2023-03-12T09:15:13.100Z,99208.34
2023-03-12T09:16:11.083Z,99203.16
2023-03-12T09:17:11.088Z,99205.76
2023-03-12T09:18:11.089Z,99208.58
2023-03-12T09:19:11.077Z,99203.46
2023-03-12T09:20:13.082Z,99197.61
2023-03-12T09:21:11.073Z,99201.68
2023-03-12T09:22:11.079Z,99205.21
2023-03-12T09:23:11.074Z,99216.97
2023-03-12T09:24:11.073Z,99222.66
2023-03-12T09:25:11.080Z,99220.34
2023-03-12T09:26:13.096Z,99217.43
2023-03-12T09:27:11.072Z,99213.02
2023-03-12T09:28:11.080Z,99214.85
2023-03-12T09:29:11.080Z,99212.19
2023-03-12T09:30:11.074Z,99215.22
2023-03-12T09:31:11.126Z,99213.43
2023-03-12T09:32:11.078Z,99213.80
2023-03-12T09:33:11.071Z,99200.46
2023-03-12T09:34:11.067Z,99220.77
2023-03-12T09:35:11.100Z,99223.53
2023-03-12T09:36:11.197Z,99224.96
2023-03-12T09:37:11.078Z,99229.57
2023-03-12T09:38:13.077Z,99220.62
2023-03-12T09:39:11.070Z,99214.04
2023-03-12T09:40:15.078Z,99205.94
2023-03-12T09:41:19.069Z,99204.93
2023-03-12T09:42:19.077Z,99201.82
2023-03-12T09:43:17.070Z,99202.42
2023-03-12T09:44:22.069Z,99204.11
2023-03-12T09:45:17.076Z,99199.19
2023-03-12T09:46:19.117Z,99204.36
2023-03-12T09:47:21.097Z,99204.99
2023-03-12T09:48:19.074Z,99204.20
2023-03-12T09:49:19.075Z,99202.77
2023-03-12T09:50:19.075Z,99205.87
2023-03-12T09:51:18.074Z,99207.70
2023-03-12T09:52:19.075Z,99204.49
2023-03-12T09:53:21.069Z,99202.92
2023-03-12T09:54:21.073Z,99197.69
2023-03-12T09:55:16.069Z,99188.44
2023-03-12T09:56:16.074Z,99190.03
2023-03-12T09:57:19.074Z,99197.71
2023-03-12T09:58:19.072Z,99199.16
2023-03-12T09:59:13.085Z,99207.03
2023-03-12T10:00:13.080Z,99199.77
2023-03-12T10:01:21.056Z,99193.59
2023-03-12T10:02:19.057Z,99197.74
2023-03-12T10:03:19.135Z,99199.70
2023-03-12T10:04:20.092Z,99197.95
2023-03-12T10:05:20.182Z,99201.13
2023-03-12T10:06:19.082Z,99199.65
2023-03-12T10:07:23.062Z,99202.12
2023-03-12T10:08:24.662Z,99200.30
2023-03-12T10:09:23.065Z,99195.11
2023-03-12T10:10:19.074Z,99196.14
2023-03-12T10:11:19.063Z,99196.37
2023-03-12T10:12:21.060Z,99190.33
2023-03-12T10:13:19.055Z,99187.80
2023-03-12T10:14:24.242Z,99189.26
2023-03-12T10:15:21.064Z,99186.75
2023-03-12T10:16:19.145Z,99183.25
2023-03-12T10:17:21.062Z,99186.68
2023-03-12T10:18:21.198Z,99191.68
2023-03-12T10:19:21.067Z,99185.73
2023-03-12T10:20:19.062Z,99188.68
2023-03-12T10:21:19.068Z,99190.71
2023-03-12T10:22:21.066Z,99189.54
2023-03-12T10:23:19.071Z,99193.22
2023-03-12T10:24:19.061Z,99191.69
2023-03-12T10:25:19.064Z,99192.36
2023-03-12T10:26:19.075Z,99196.77
2023-03-12T10:27:15.074Z,99188.94
2023-03-12T10:28:18.064Z,99188.45
2023-03-12T10:29:19.067Z,99180.03
2023-03-12T10:30:19.066Z,99180.58
2023-03-12T10:31:18.157Z,99171.77
2023-03-12T10:32:23.144Z,99177.89
2023-03-12T10:33:15.063Z,99185.88
2023-03-12T10:34:19.074Z,99186.11
2023-03-12T10:35:20.454Z,99178.77
2023-03-12T10:36:16.062Z,99186.56
2023-03-12T10:37:18.059Z,99185.57
2023-03-12T10:38:21.064Z,99185.02
2023-03-12T10:39:15.061Z,99177.03
2023-03-12T10:40:19.063Z,99172.67
2023-03-12T10:41:21.069Z,99178.53
2023-03-12T10:42:18.072Z,99177.38
2023-03-12T10:43:13.069Z,99176.40
2023-03-12T10:44:13.064Z,99176.39
2023-03-12T10:45:21.063Z,99183.37
2023-03-12T10:46:21.082Z,99184.11
2023-03-12T10:47:19.067Z,99185.89
2023-03-12T10:48:15.070Z,99181.15
2023-03-12T10:49:19.065Z,99169.64
2023-03-12T10:50:18.060Z,99170.92
2023-03-12T10:51:14.063Z,99179.40
2023-03-12T10:52:19.073Z,99176.16
2023-03-12T10:53:19.063Z,99177.88
2023-03-12T10:54:19.062Z,99179.67
2023-03-12T10:55:21.066Z,99179.99
2023-03-12T10:56:11.064Z,99181.50
2023-03-12T10:57:11.072Z,99179.71
2023-03-12T10:58:19.073Z,99180.85
2023-03-12T10:59:19.089Z,99184.18
2023-03-12T11:00:15.068Z,99174.95
2023-03-12T11:01:19.183Z,99169.06
2023-03-12T11:02:19.088Z,99172.38
2023-03-12T11:03:19.062Z,99168.67
2023-03-12T11:04:17.065Z,99169.00
2023-03-12T11:05:19.084Z,99169.54
2023-03-12T11:06:15.136Z,99173.70
2023-03-12T11:07:19.066Z,99158.88
2023-03-12T11:08:19.066Z,99161.35
2023-03-12T11:09:18.074Z,99150.58
2023-03-12T11:10:16.066Z,99158.42
2023-03-12T11:11:11.070Z,99162.42
2023-03-12T11:12:19.068Z,99157.87
2023-03-12T11:13:19.074Z,99156.55
2023-03-12T11:14:20.065Z,99152.73
2023-03-12T11:15:19.067Z,99164.05
2023-03-12T11:16:21.149Z,99163.47
2023-03-12T11:17:19.072Z,99158.79
2023-03-12T11:18:19.076Z,99155.68
2023-03-12T11:19:14.074Z,99154.14
2023-03-12T11:20:19.070Z,99150.39
2023-03-12T11:21:15.068Z,99141.48
2023-03-12T11:22:11.074Z,99157.52
2023-03-12T11:23:19.069Z,99144.67
2023-03-12T11:24:13.067Z,99148.95
2023-03-12T11:25:19.072Z,99147.92
2023-03-12T11:26:16.071Z,99151.61
2023-03-12T11:27:19.069Z,99154.75
2023-03-12T11:28:19.075Z,99154.36
2023-03-12T11:29:19.133Z,99141.57
2023-03-12T11:30:17.134Z,99147.50
2023-03-12T11:31:15.234Z,99147.66
2023-03-12T11:32:19.149Z,99143.03
2023-03-12T11:33:11.064Z,99132.39
2023-03-12T11:34:19.076Z,99149.38
2023-03-12T11:35:13.076Z,99151.23
2023-03-12T11:36:21.066Z,99143.27
2023-03-12T11:37:21.070Z,99140.43
2023-03-12T11:38:18.068Z,99134.70
2023-03-12T11:39:19.076Z,99136.17
2023-03-12T11:40:23.069Z,99138.15
2023-03-12T11:41:19.067Z,99131.11
2023-03-12T11:42:21.078Z,99133.72
2023-03-12T11:43:26.401Z,99135.30
2023-03-12T11:44:23.083Z,99134.56
2023-03-12T11:45:18.079Z,99128.07
2023-03-12T11:46:19.100Z,99135.43